sensor_id;sensor_type;location;lat;lon;timestamp;P1;durP1;ratioP1;P2;durP2;ratioP2
24521;SDS011;12680;57.804;12.190;2023-09-30T00:01:09;15.45;;;3.28;;
24521;SDS011;12680;57.804;12.190;2023-09-30T00:06:07;13.80;;;3.28;;
24521;SDS011;12680;57.804;12.190;2023-09-30T00:08:35;18.80;;;3.50;;
24521;SDS011;12680;57.804;12.190;2023-09-30T00:11:08;18.75;;;3.20;;
24521;SDS011;12680;57.804;12.190;2023-09-30T00:13:39;16.42;;;3.83;;
24521;SDS011;12680;57.804;12.190;2023-09-30T00:16:06;20.85;;;3.72;;
24521;SDS011;12680;57.804;12.190;2023-09-30T00:18:35;22.90;;;3.22;;
24521;SDS011;12680;57.804;12.190;2023-09-30T00:21:02;14.35;;;3.22;;
24521;SDS011;12680;57.804;12.190;2023-09-30T00:23:33;25.20;;;3.70;;
24521;SDS011;12680;57.804;12.190;2023-09-30T00:26:00;23.38;;;3.50;;
24521;SDS011;12680;57.804;12.190;2023-09-30T00:28:27;23.77;;;3.33;;
24521;SDS011;12680;57.804;12.190;2023-09-30T00:31:01;14.18;;;3.63;;
24521;SDS011;12680;57.804;12.190;2023-09-30T00:33:36;22.10;;;3.45;;
24521;SDS011;12680;57.804;12.190;2023-09-30T00:36:10;19.00;;;3.72;;
24521;SDS011;12680;57.804;12.190;2023-09-30T00:38:38;15.48;;;3.38;;
24521;SDS011;12680;57.804;12.190;2023-09-30T00:41:06;21.52;;;3.50;;
24521;SDS011;12680;57.804;12.190;2023-09-30T00:43:36;25.42;;;3.45;;
24521;SDS011;12680;57.804;12.190;2023-09-30T00:49:01;24.92;;;4.38;;
24521;SDS011;12680;57.804;12.190;2023-09-30T00:51:29;19.60;;;3.72;;
24521;SDS011;12680;57.804;12.190;2023-09-30T00:54:01;19.60;;;3.83;;
24521;SDS011;12680;57.804;12.190;2023-09-30T00:59:16;25.98;;;3.40;;
24521;SDS011;12680;57.804;12.190;2023-09-30T01:01:44;22.23;;;3.72;;
24521;SDS011;12680;57.804;12.190;2023-09-30T01:04:12;23.45;;;3.70;;
24521;SDS011;12680;57.804;12.190;2023-09-30T01:06:41;18.83;;;2.83;;
24521;SDS011;12680;57.804;12.190;2023-09-30T01:09:11;17.75;;;3.30;;
24521;SDS011;12680;57.804;12.190;2023-09-30T01:11:45;19.95;;;3.38;;
24521;SDS011;12680;57.804;12.190;2023-09-30T01:16:59;16.08;;;2.88;;
24521;SDS011;12680;57.804;12.190;2023-09-30T01:19:27;18.10;;;3.83;;
24521;SDS011;12680;57.804;12.190;2023-09-30T01:22:00;26.77;;;3.88;;
24521;SDS011;12680;57.804;12.190;2023-09-30T01:24:39;18.98;;;2.90;;
24521;SDS011;12680;57.804;12.190;2023-09-30T01:29:46;24.98;;;3.30;;
24521;SDS011;12680;57.804;12.190;2023-09-30T01:32:13;18.45;;;3.53;;
24521;SDS011;12680;57.804;12.190;2023-09-30T01:34:46;16.35;;;3.22;;
24521;SDS011;12680;57.804;12.190;2023-09-30T01:37:16;18.58;;;3.22;;
24521;SDS011;12680;57.804;12.190;2023-09-30T01:42:12;20.77;;;3.80;;
24521;SDS011;12680;57.804;12.190;2023-09-30T01:44:42;23.48;;;3.80;;
24521;SDS011;12680;57.804;12.190;2023-09-30T01:47:12;20.70;;;4.63;;
24521;SDS011;12680;57.804;12.190;2023-09-30T01:49:39;23.70;;;3.53;;
24521;SDS011;12680;57.804;12.190;2023-09-30T01:52:09;25.60;;;3.55;;
24521;SDS011;12680;57.804;12.190;2023-09-30T01:54:39;21.50;;;3.92;;
24521;SDS011;12680;57.804;12.190;2023-09-30T01:57:06;20.45;;;3.85;;
24521;SDS011;12680;57.804;12.190;2023-09-30T01:59:33;23.40;;;4.00;;
24521;SDS011;12680;57.804;12.190;2023-09-30T02:02:04;21.10;;;3.63;;
24521;SDS011;12680;57.804;12.190;2023-09-30T02:04:35;19.52;;;3.28;;
24521;SDS011;12680;57.804;12.190;2023-09-30T02:07:02;15.45;;;2.97;;
24521;SDS011;12680;57.804;12.190;2023-09-30T02:09:33;22.75;;;3.90;;
24521;SDS011;12680;57.804;12.190;2023-09-30T02:12:07;23.10;;;3.47;;
24521;SDS011;12680;57.804;12.190;2023-09-30T02:14:37;17.10;;;3.30;;
24521;SDS011;12680;57.804;12.190;2023-09-30T02:17:12;16.75;;;3.47;;
24521;SDS011;12680;57.804;12.190;2023-09-30T02:19:39;24.73;;;3.35;;
24521;SDS011;12680;57.804;12.190;2023-09-30T02:22:10;23.27;;;3.30;;
24521;SDS011;12680;57.804;12.190;2023-09-30T02:24:41;28.00;;;3.97;;
24521;SDS011;12680;57.804;12.190;2023-09-30T02:29:42;24.52;;;3.35;;
24521;SDS011;12680;57.804;12.190;2023-09-30T02:32:12;17.20;;;3.03;;
24521;SDS011;12680;57.804;12.190;2023-09-30T02:34:44;26.23;;;4.10;;
24521;SDS011;12680;57.804;12.190;2023-09-30T02:37:17;25.60;;;3.97;;
24521;SDS011;12680;57.804;12.190;2023-09-30T02:39:44;16.75;;;2.80;;
24521;SDS011;12680;57.804;12.190;2023-09-30T02:42:15;21.30;;;3.70;;
24521;SDS011;12680;57.804;12.190;2023-09-30T02:44:45;25.77;;;3.80;;
24521;SDS011;12680;57.804;12.190;2023-09-30T02:47:19;22.80;;;3.28;;
24521;SDS011;12680;57.804;12.190;2023-09-30T02:49:49;19.58;;;2.88;;
24521;SDS011;12680;57.804;12.190;2023-09-30T02:52:16;25.67;;;3.93;;
24521;SDS011;12680;57.804;12.190;2023-09-30T02:54:46;26.58;;;4.60;;
24521;SDS011;12680;57.804;12.190;2023-09-30T02:57:17;20.77;;;4.07;;
24521;SDS011;12680;57.804;12.190;2023-09-30T02:59:47;21.95;;;3.72;;
24521;SDS011;12680;57.804;12.190;2023-09-30T03:02:20;19.05;;;3.03;;
24521;SDS011;12680;57.804;12.190;2023-09-30T03:04:51;21.30;;;3.42;;
24521;SDS011;12680;57.804;12.190;2023-09-30T03:07:25;18.50;;;3.53;;
24521;SDS011;12680;57.804;12.190;2023-09-30T03:09:56;20.70;;;3.22;;
24521;SDS011;12680;57.804;12.190;2023-09-30T03:12:28;25.63;;;3.88;;
24521;SDS011;12680;57.804;12.190;2023-09-30T03:14:55;18.55;;;3.03;;
24521;SDS011;12680;57.804;12.190;2023-09-30T03:17:29;30.35;;;4.57;;
24521;SDS011;12680;57.804;12.190;2023-09-30T03:20:00;16.13;;;3.88;;
24521;SDS011;12680;57.804;12.190;2023-09-30T03:22:27;21.48;;;3.60;;
24521;SDS011;12680;57.804;12.190;2023-09-30T03:24:54;20.90;;;3.58;;
24521;SDS011;12680;57.804;12.190;2023-09-30T03:27:23;19.90;;;3.30;;
24521;SDS011;12680;57.804;12.190;2023-09-30T03:29:54;27.90;;;3.35;;
24521;SDS011;12680;57.804;12.190;2023-09-30T03:32:23;20.58;;;4.22;;
24521;SDS011;12680;57.804;12.190;2023-09-30T03:34:52;21.27;;;4.10;;
24521;SDS011;12680;57.804;12.190;2023-09-30T03:37:28;20.35;;;4.20;;
24521;SDS011;12680;57.804;12.190;2023-09-30T03:39:55;21.75;;;3.53;;
24521;SDS011;12680;57.804;12.190;2023-09-30T03:42:23;22.50;;;3.67;;
24521;SDS011;12680;57.804;12.190;2023-09-30T03:44:58;27.95;;;3.50;;
24521;SDS011;12680;57.804;12.190;2023-09-30T03:47:25;18.73;;;3.33;;
24521;SDS011;12680;57.804;12.190;2023-09-30T03:49:57;26.45;;;3.42;;
24521;SDS011;12680;57.804;12.190;2023-09-30T03:52:38;19.33;;;3.88;;
24521;SDS011;12680;57.804;12.190;2023-09-30T03:55:05;28.52;;;3.83;;
24521;SDS011;12680;57.804;12.190;2023-09-30T03:57:32;18.65;;;3.47;;
24521;SDS011;12680;57.804;12.190;2023-09-30T04:00:00;16.10;;;2.95;;
24521;SDS011;12680;57.804;12.190;2023-09-30T04:02:33;22.48;;;3.67;;
24521;SDS011;12680;57.804;12.190;2023-09-30T04:05:12;17.15;;;3.15;;
24521;SDS011;12680;57.804;12.190;2023-09-30T04:07:46;21.58;;;2.70;;
24521;SDS011;12680;57.804;12.190;2023-09-30T04:12:47;21.63;;;3.80;;
24521;SDS011;12680;57.804;12.190;2023-09-30T04:15:21;19.52;;;3.13;;
24521;SDS011;12680;57.804;12.190;2023-09-30T04:17:48;14.52;;;3.13;;
24521;SDS011;12680;57.804;12.190;2023-09-30T04:20:15;24.42;;;3.42;;
24521;SDS011;12680;57.804;12.190;2023-09-30T04:22:44;18.75;;;3.45;;
24521;SDS011;12680;57.804;12.190;2023-09-30T04:25:15;20.88;;;2.58;;
24521;SDS011;12680;57.804;12.190;2023-09-30T04:27:46;14.38;;;3.25;;
24521;SDS011;12680;57.804;12.190;2023-09-30T04:30:15;21.77;;;3.90;;
24521;SDS011;12680;57.804;12.190;2023-09-30T04:32:46;15.82;;;3.25;;
24521;SDS011;12680;57.804;12.190;2023-09-30T04:37:44;17.10;;;3.63;;
24521;SDS011;12680;57.804;12.190;2023-09-30T04:40:14;24.73;;;4.10;;
24521;SDS011;12680;57.804;12.190;2023-09-30T04:42:42;19.73;;;4.07;;
24521;SDS011;12680;57.804;12.190;2023-09-30T04:45:11;20.60;;;3.47;;
24521;SDS011;12680;57.804;12.190;2023-09-30T04:47:42;18.45;;;3.95;;
24521;SDS011;12680;57.804;12.190;2023-09-30T04:50:15;22.40;;;3.35;;
24521;SDS011;12680;57.804;12.190;2023-09-30T04:52:43;26.88;;;3.28;;
24521;SDS011;12680;57.804;12.190;2023-09-30T04:55:11;21.55;;;3.72;;
24521;SDS011;12680;57.804;12.190;2023-09-30T04:57:42;16.48;;;3.67;;
24521;SDS011;12680;57.804;12.190;2023-09-30T05:00:12;23.73;;;4.15;;
24521;SDS011;12680;57.804;12.190;2023-09-30T05:02:51;24.70;;;3.13;;
24521;SDS011;12680;57.804;12.190;2023-09-30T05:05:21;19.70;;;3.20;;
24521;SDS011;12680;57.804;12.190;2023-09-30T05:07:52;19.25;;;3.30;;
24521;SDS011;12680;57.804;12.190;2023-09-30T05:10:18;23.75;;;4.03;;
24521;SDS011;12680;57.804;12.190;2023-09-30T05:12:50;16.05;;;3.60;;
24521;SDS011;12680;57.804;12.190;2023-09-30T05:15:27;23.92;;;3.33;;
24521;SDS011;12680;57.804;12.190;2023-09-30T05:17:55;19.85;;;3.28;;
24521;SDS011;12680;57.804;12.190;2023-09-30T05:20:22;16.95;;;2.83;;
24521;SDS011;12680;57.804;12.190;2023-09-30T05:22:50;15.60;;;2.92;;
24521;SDS011;12680;57.804;12.190;2023-09-30T05:25:20;17.52;;;3.10;;
24521;SDS011;12680;57.804;12.190;2023-09-30T05:27:52;19.60;;;2.85;;
24521;SDS011;12680;57.804;12.190;2023-09-30T05:30:19;21.13;;;2.92;;
24521;SDS011;12680;57.804;12.190;2023-09-30T05:32:50;12.07;;;2.42;;
24521;SDS011;12680;57.804;12.190;2023-09-30T05:35:18;22.55;;;4.28;;
24521;SDS011;12680;57.804;12.190;2023-09-30T05:37:49;24.73;;;3.40;;
24521;SDS011;12680;57.804;12.190;2023-09-30T05:40:23;17.87;;;3.70;;
24521;SDS011;12680;57.804;12.190;2023-09-30T05:42:52;17.00;;;2.25;;
24521;SDS011;12680;57.804;12.190;2023-09-30T05:45:32;14.07;;;2.35;;
24521;SDS011;12680;57.804;12.190;2023-09-30T05:48:02;15.82;;;2.70;;
24521;SDS011;12680;57.804;12.190;2023-09-30T05:50:35;13.73;;;2.08;;
24521;SDS011;12680;57.804;12.190;2023-09-30T05:55:37;20.42;;;3.22;;
24521;SDS011;12680;57.804;12.190;2023-09-30T05:58:04;13.80;;;2.08;;
24521;SDS011;12680;57.804;12.190;2023-09-30T06:00:35;9.05;;;1.90;;
24521;SDS011;12680;57.804;12.190;2023-09-30T06:03:09;16.05;;;2.53;;
24521;SDS011;12680;57.804;12.190;2023-09-30T06:05:42;9.05;;;1.52;;
24521;SDS011;12680;57.804;12.190;2023-09-30T06:08:10;15.25;;;2.03;;
24521;SDS011;12680;57.804;12.190;2023-09-30T06:10:43;12.90;;;2.78;;
24521;SDS011;12680;57.804;12.190;2023-09-30T06:13:10;11.27;;;2.00;;
24521;SDS011;12680;57.804;12.190;2023-09-30T06:15:39;15.07;;;2.00;;
24521;SDS011;12680;57.804;12.190;2023-09-30T06:18:07;15.70;;;1.67;;
24521;SDS011;12680;57.804;12.190;2023-09-30T06:20:39;17.20;;;2.03;;
24521;SDS011;12680;57.804;12.190;2023-09-30T06:23:07;12.93;;;1.98;;
24521;SDS011;12680;57.804;12.190;2023-09-30T06:25:47;15.32;;;1.80;;
24521;SDS011;12680;57.804;12.190;2023-09-30T06:28:14;10.15;;;1.58;;
24521;SDS011;12680;57.804;12.190;2023-09-30T06:30:48;12.38;;;1.67;;
24521;SDS011;12680;57.804;12.190;2023-09-30T06:33:19;11.02;;;1.75;;
24521;SDS011;12680;57.804;12.190;2023-09-30T06:35:52;18.95;;;2.55;;
24521;SDS011;12680;57.804;12.190;2023-09-30T06:38:23;15.18;;;2.28;;
24521;SDS011;12680;57.804;12.190;2023-09-30T06:40:52;6.32;;;1.88;;
24521;SDS011;12680;57.804;12.190;2023-09-30T06:43:20;9.10;;;1.80;;
24521;SDS011;12680;57.804;12.190;2023-09-30T06:45:50;13.55;;;2.35;;
24521;SDS011;12680;57.804;12.190;2023-09-30T06:48:25;10.68;;;2.00;;
24521;SDS011;12680;57.804;12.190;2023-09-30T06:50:56;12.30;;;1.90;;
24521;SDS011;12680;57.804;12.190;2023-09-30T06:53:30;8.77;;;1.45;;
24521;SDS011;12680;57.804;12.190;2023-09-30T06:56:04;9.25;;;2.13;;
24521;SDS011;12680;57.804;12.190;2023-09-30T06:58:32;10.52;;;1.90;;
24521;SDS011;12680;57.804;12.190;2023-09-30T07:01:02;16.90;;;2.28;;
24521;SDS011;12680;57.804;12.190;2023-09-30T07:03:38;12.88;;;3.05;;
24521;SDS011;12680;57.804;12.190;2023-09-30T07:06:11;8.80;;;1.98;;
24521;SDS011;12680;57.804;12.190;2023-09-30T07:08:47;10.40;;;2.15;;
24521;SDS011;12680;57.804;12.190;2023-09-30T07:11:26;8.23;;;1.70;;
24521;SDS011;12680;57.804;12.190;2023-09-30T07:14:04;5.35;;;1.67;;
24521;SDS011;12680;57.804;12.190;2023-09-30T07:16:31;12.45;;;1.60;;
24521;SDS011;12680;57.804;12.190;2023-09-30T07:19:07;10.90;;;1.55;;
24521;SDS011;12680;57.804;12.190;2023-09-30T07:21:35;9.02;;;1.60;;
24521;SDS011;12680;57.804;12.190;2023-09-30T07:24:09;11.98;;;2.30;;
24521;SDS011;12680;57.804;12.190;2023-09-30T07:29:08;8.73;;;1.60;;
24521;SDS011;12680;57.804;12.190;2023-09-30T07:31:37;15.25;;;2.65;;
24521;SDS011;12680;57.804;12.190;2023-09-30T07:34:06;13.00;;;2.35;;
24521;SDS011;12680;57.804;12.190;2023-09-30T07:36:33;11.15;;;2.00;;
24521;SDS011;12680;57.804;12.190;2023-09-30T07:39:01;9.95;;;1.95;;
24521;SDS011;12680;57.804;12.190;2023-09-30T07:41:35;11.70;;;1.90;;
24521;SDS011;12680;57.804;12.190;2023-09-30T07:44:08;12.35;;;2.05;;
24521;SDS011;12680;57.804;12.190;2023-09-30T07:46:38;12.50;;;2.40;;
24521;SDS011;12680;57.804;12.190;2023-09-30T07:49:13;11.27;;;1.90;;
24521;SDS011;12680;57.804;12.190;2023-09-30T07:51:41;14.60;;;2.30;;
24521;SDS011;12680;57.804;12.190;2023-09-30T07:54:11;12.40;;;2.47;;
24521;SDS011;12680;57.804;12.190;2023-09-30T07:56:56;10.55;;;2.03;;
24521;SDS011;12680;57.804;12.190;2023-09-30T07:59:24;12.02;;;1.60;;
24521;SDS011;12680;57.804;12.190;2023-09-30T08:01:51;10.15;;;1.75;;
24521;SDS011;12680;57.804;12.190;2023-09-30T08:04:23;10.88;;;1.75;;
24521;SDS011;12680;57.804;12.190;2023-09-30T08:06:57;9.75;;;1.95;;
24521;SDS011;12680;57.804;12.190;2023-09-30T08:09:28;7.50;;;1.87;;
24521;SDS011;12680;57.804;12.190;2023-09-30T08:11:55;9.23;;;1.88;;
24521;SDS011;12680;57.804;12.190;2023-09-30T08:14:23;7.93;;;1.45;;
24521;SDS011;12680;57.804;12.190;2023-09-30T08:16:53;12.98;;;1.83;;
24521;SDS011;12680;57.804;12.190;2023-09-30T08:19:24;10.80;;;2.30;;
24521;SDS011;12680;57.804;12.190;2023-09-30T08:21:51;10.13;;;1.83;;
24521;SDS011;12680;57.804;12.190;2023-09-30T08:24:28;18.02;;;3.60;;
24521;SDS011;12680;57.804;12.190;2023-09-30T08:26:57;12.45;;;2.05;;
24521;SDS011;12680;57.804;12.190;2023-09-30T08:29:32;14.35;;;2.50;;
24521;SDS011;12680;57.804;12.190;2023-09-30T08:32:04;13.25;;;3.15;;
24521;SDS011;12680;57.804;12.190;2023-09-30T08:34:38;10.82;;;1.65;;
24521;SDS011;12680;57.804;12.190;2023-09-30T08:37:12;12.13;;;2.28;;
24521;SDS011;12680;57.804;12.190;2023-09-30T08:39:47;12.20;;;2.25;;
24521;SDS011;12680;57.804;12.190;2023-09-30T08:42:16;15.68;;;2.75;;
24521;SDS011;12680;57.804;12.190;2023-09-30T08:44:46;14.50;;;2.45;;
24521;SDS011;12680;57.804;12.190;2023-09-30T08:47:13;14.05;;;2.10;;
24521;SDS011;12680;57.804;12.190;2023-09-30T08:49:41;16.60;;;2.17;;
24521;SDS011;12680;57.804;12.190;2023-09-30T08:52:10;14.27;;;3.08;;
24521;SDS011;12680;57.804;12.190;2023-09-30T08:54:39;13.93;;;2.28;;
24521;SDS011;12680;57.804;12.190;2023-09-30T08:57:07;11.30;;;2.15;;
24521;SDS011;12680;57.804;12.190;2023-09-30T08:59:36;14.23;;;2.72;;
24521;SDS011;12680;57.804;12.190;2023-09-30T09:02:08;17.50;;;2.95;;
24521;SDS011;12680;57.804;12.190;2023-09-30T09:04:36;11.23;;;1.92;;
24521;SDS011;12680;57.804;12.190;2023-09-30T09:07:03;12.85;;;2.95;;
24521;SDS011;12680;57.804;12.190;2023-09-30T09:09:30;17.38;;;2.65;;
24521;SDS011;12680;57.804;12.190;2023-09-30T09:11:58;7.85;;;2.45;;
24521;SDS011;12680;57.804;12.190;2023-09-30T09:14:38;9.65;;;1.98;;
24521;SDS011;12680;57.804;12.190;2023-09-30T09:17:07;10.95;;;2.40;;
24521;SDS011;12680;57.804;12.190;2023-09-30T09:19:34;13.25;;;2.67;;
24521;SDS011;12680;57.804;12.190;2023-09-30T09:22:02;7.38;;;2.00;;
24521;SDS011;12680;57.804;12.190;2023-09-30T09:24:31;11.57;;;2.65;;
24521;SDS011;12680;57.804;12.190;2023-09-30T09:27:06;17.30;;;3.28;;
24521;SDS011;12680;57.804;12.190;2023-09-30T09:29:35;10.75;;;2.17;;
24521;SDS011;12680;57.804;12.190;2023-09-30T09:34:40;9.23;;;2.15;;
24521;SDS011;12680;57.804;12.190;2023-09-30T09:37:19;13.85;;;1.80;;
24521;SDS011;12680;57.804;12.190;2023-09-30T09:42:28;14.32;;;3.00;;
24521;SDS011;12680;57.804;12.190;2023-09-30T09:45:01;12.77;;;2.40;;
24521;SDS011;12680;57.804;12.190;2023-09-30T09:47:31;9.88;;;2.22;;
24521;SDS011;12680;57.804;12.190;2023-09-30T09:49:59;15.18;;;2.78;;
24521;SDS011;12680;57.804;12.190;2023-09-30T09:52:29;12.20;;;2.83;;
24521;SDS011;12680;57.804;12.190;2023-09-30T09:54:57;13.93;;;2.58;;
24521;SDS011;12680;57.804;12.190;2023-09-30T09:57:25;13.27;;;2.67;;
24521;SDS011;12680;57.804;12.190;2023-09-30T09:59:53;11.13;;;2.53;;
24521;SDS011;12680;57.804;12.190;2023-09-30T10:04:54;16.52;;;2.67;;
24521;SDS011;12680;57.804;12.190;2023-09-30T10:07:27;11.98;;;3.03;;
24521;SDS011;12680;57.804;12.190;2023-09-30T10:09:58;20.00;;;3.60;;
24521;SDS011;12680;57.804;12.190;2023-09-30T10:12:27;13.07;;;2.67;;
24521;SDS011;12680;57.804;12.190;2023-09-30T10:15:13;13.45;;;2.92;;
24521;SDS011;12680;57.804;12.190;2023-09-30T10:20:38;12.55;;;3.10;;
24521;SDS011;12680;57.804;12.190;2023-09-30T10:25:44;16.50;;;3.03;;
24521;SDS011;12680;57.804;12.190;2023-09-30T10:36:32;13.20;;;2.92;;
24521;SDS011;12680;57.804;12.190;2023-09-30T10:39:10;13.95;;;2.47;;
24521;SDS011;12680;57.804;12.190;2023-09-30T10:46:59;12.30;;;2.40;;
24521;SDS011;12680;57.804;12.190;2023-09-30T10:51:55;17.90;;;3.03;;
24521;SDS011;12680;57.804;12.190;2023-09-30T10:54:30;17.27;;;3.05;;
24521;SDS011;12680;57.804;12.190;2023-09-30T10:56:58;20.00;;;3.53;;
24521;SDS011;12680;57.804;12.190;2023-09-30T10:59:27;14.38;;;2.88;;
24521;SDS011;12680;57.804;12.190;2023-09-30T11:01:58;10.35;;;2.55;;
24521;SDS011;12680;57.804;12.190;2023-09-30T11:04:27;12.13;;;2.80;;
24521;SDS011;12680;57.804;12.190;2023-09-30T11:06:55;18.10;;;3.35;;
24521;SDS011;12680;57.804;12.190;2023-09-30T11:09:22;16.45;;;3.83;;
24521;SDS011;12680;57.804;12.190;2023-09-30T11:11:50;18.50;;;3.10;;
24521;SDS011;12680;57.804;12.190;2023-09-30T11:16:51;16.58;;;3.20;;
24521;SDS011;12680;57.804;12.190;2023-09-30T11:19:20;15.88;;;2.95;;
24521;SDS011;12680;57.804;12.190;2023-09-30T11:21:51;19.02;;;3.50;;
24521;SDS011;12680;57.804;12.190;2023-09-30T11:24:19;14.55;;;2.85;;
24521;SDS011;12680;57.804;12.190;2023-09-30T11:26:47;21.83;;;3.80;;
24521;SDS011;12680;57.804;12.190;2023-09-30T11:29:15;16.48;;;3.17;;
24521;SDS011;12680;57.804;12.190;2023-09-30T11:31:43;16.67;;;2.67;;
24521;SDS011;12680;57.804;12.190;2023-09-30T11:34:16;7.82;;;2.22;;
24521;SDS011;12680;57.804;12.190;2023-09-30T11:36:50;17.58;;;2.88;;
24521;SDS011;12680;57.804;12.190;2023-09-30T11:39:22;16.77;;;2.63;;
24521;SDS011;12680;57.804;12.190;2023-09-30T11:41:50;14.13;;;2.42;;
24521;SDS011;12680;57.804;12.190;2023-09-30T11:44:18;13.02;;;2.72;;
24521;SDS011;12680;57.804;12.190;2023-09-30T11:52:08;16.27;;;2.92;;
24521;SDS011;12680;57.804;12.190;2023-09-30T11:54:37;15.18;;;2.70;;
24521;SDS011;12680;57.804;12.190;2023-09-30T11:59:36;18.02;;;3.00;;
24521;SDS011;12680;57.804;12.190;2023-09-30T12:02:04;15.90;;;2.40;;
24521;SDS011;12680;57.804;12.190;2023-09-30T12:04:41;15.02;;;3.22;;
24521;SDS011;12680;57.804;12.190;2023-09-30T12:07:09;13.57;;;2.78;;
24521;SDS011;12680;57.804;12.190;2023-09-30T12:09:37;12.45;;;3.10;;
24521;SDS011;12680;57.804;12.190;2023-09-30T12:12:06;12.10;;;2.80;;
24521;SDS011;12680;57.804;12.190;2023-09-30T12:14:37;14.73;;;2.90;;
24521;SDS011;12680;57.804;12.190;2023-09-30T12:17:04;9.05;;;2.20;;
24521;SDS011;12680;57.804;12.190;2023-09-30T12:19:31;17.67;;;3.10;;
24521;SDS011;12680;57.804;12.190;2023-09-30T12:21:58;16.35;;;3.25;;
24521;SDS011;12680;57.804;12.190;2023-09-30T12:24:25;17.60;;;2.80;;
24521;SDS011;12680;57.804;12.190;2023-09-30T12:26:53;12.25;;;2.70;;
24521;SDS011;12680;57.804;12.190;2023-09-30T12:29:21;12.50;;;3.25;;
24521;SDS011;12680;57.804;12.190;2023-09-30T12:31:50;12.38;;;2.65;;
24521;SDS011;12680;57.804;12.190;2023-09-30T12:34:20;22.27;;;3.53;;
24521;SDS011;12680;57.804;12.190;2023-09-30T12:36:54;18.77;;;3.03;;
24521;SDS011;12680;57.804;12.190;2023-09-30T12:39:24;17.88;;;3.28;;
24521;SDS011;12680;57.804;12.190;2023-09-30T12:41:53;15.25;;;2.78;;
24521;SDS011;12680;57.804;12.190;2023-09-30T12:44:20;13.55;;;3.03;;
24521;SDS011;12680;57.804;12.190;2023-09-30T12:46:50;16.70;;;3.15;;
24521;SDS011;12680;57.804;12.190;2023-09-30T12:49:17;15.93;;;3.22;;
24521;SDS011;12680;57.804;12.190;2023-09-30T12:51:45;13.73;;;2.63;;
24521;SDS011;12680;57.804;12.190;2023-09-30T12:54:12;17.77;;;2.72;;
24521;SDS011;12680;57.804;12.190;2023-09-30T12:56:41;13.80;;;2.25;;
24521;SDS011;12680;57.804;12.190;2023-09-30T12:59:08;14.30;;;2.95;;
24521;SDS011;12680;57.804;12.190;2023-09-30T13:01:34;12.68;;;2.75;;
24521;SDS011;12680;57.804;12.190;2023-09-30T13:04:02;13.13;;;2.40;;
24521;SDS011;12680;57.804;12.190;2023-09-30T13:06:29;15.77;;;3.20;;
24521;SDS011;12680;57.804;12.190;2023-09-30T13:08:59;21.00;;;3.15;;
24521;SDS011;12680;57.804;12.190;2023-09-30T13:11:26;17.70;;;2.85;;
24521;SDS011;12680;57.804;12.190;2023-09-30T13:13:53;18.55;;;3.20;;
24521;SDS011;12680;57.804;12.190;2023-09-30T13:16:20;20.40;;;2.97;;
24521;SDS011;12680;57.804;12.190;2023-09-30T13:18:48;10.70;;;2.40;;
24521;SDS011;12680;57.804;12.190;2023-09-30T13:21:17;13.63;;;3.03;;
24521;SDS011;12680;57.804;12.190;2023-09-30T13:23:44;14.80;;;2.83;;
24521;SDS011;12680;57.804;12.190;2023-09-30T13:26:11;12.25;;;2.78;;
24521;SDS011;12680;57.804;12.190;2023-09-30T13:28:38;18.85;;;3.08;;
24521;SDS011;12680;57.804;12.190;2023-09-30T13:31:06;13.38;;;3.08;;
24521;SDS011;12680;57.804;12.190;2023-09-30T13:33:33;16.75;;;3.03;;
24521;SDS011;12680;57.804;12.190;2023-09-30T13:36:00;13.95;;;2.47;;
24521;SDS011;12680;57.804;12.190;2023-09-30T13:38:28;11.75;;;2.80;;
24521;SDS011;12680;57.804;12.190;2023-09-30T13:40:55;12.05;;;2.63;;
24521;SDS011;12680;57.804;12.190;2023-09-30T13:43:22;16.45;;;2.72;;
24521;SDS011;12680;57.804;12.190;2023-09-30T13:45:49;16.02;;;2.97;;
24521;SDS011;12680;57.804;12.190;2023-09-30T13:48:17;15.35;;;3.30;;
24521;SDS011;12680;57.804;12.190;2023-09-30T13:50:43;18.58;;;3.05;;
24521;SDS011;12680;57.804;12.190;2023-09-30T13:53:11;18.15;;;2.70;;
24521;SDS011;12680;57.804;12.190;2023-09-30T13:55:38;12.63;;;2.50;;
24521;SDS011;12680;57.804;12.190;2023-09-30T13:58:05;10.18;;;2.13;;
24521;SDS011;12680;57.804;12.190;2023-09-30T14:00:32;13.60;;;2.80;;
24521;SDS011;12680;57.804;12.190;2023-09-30T14:02:59;15.93;;;2.90;;
24521;SDS011;12680;57.804;12.190;2023-09-30T14:05:27;15.35;;;2.55;;
24521;SDS011;12680;57.804;12.190;2023-09-30T14:07:54;14.65;;;2.88;;
24521;SDS011;12680;57.804;12.190;2023-09-30T14:10:20;14.50;;;2.55;;
24521;SDS011;12680;57.804;12.190;2023-09-30T14:12:47;11.98;;;2.60;;
24521;SDS011;12680;57.804;12.190;2023-09-30T14:15:14;14.68;;;2.40;;
24521;SDS011;12680;57.804;12.190;2023-09-30T14:17:41;16.45;;;2.63;;
24521;SDS011;12680;57.804;12.190;2023-09-30T14:20:08;15.70;;;2.40;;
24521;SDS011;12680;57.804;12.190;2023-09-30T14:22:36;9.23;;;1.88;;
24521;SDS011;12680;57.804;12.190;2023-09-30T14:25:03;12.25;;;2.50;;
24521;SDS011;12680;57.804;12.190;2023-09-30T14:27:30;12.77;;;2.42;;
24521;SDS011;12680;57.804;12.190;2023-09-30T14:29:57;9.35;;;2.25;;
24521;SDS011;12680;57.804;12.190;2023-09-30T14:32:24;15.65;;;2.83;;
24521;SDS011;12680;57.804;12.190;2023-09-30T14:34:51;16.50;;;2.88;;
24521;SDS011;12680;57.804;12.190;2023-09-30T14:37:18;15.95;;;2.72;;
24521;SDS011;12680;57.804;12.190;2023-09-30T14:39:45;16.02;;;3.78;;
24521;SDS011;12680;57.804;12.190;2023-09-30T14:42:11;10.02;;;2.28;;
24521;SDS011;12680;57.804;12.190;2023-09-30T14:44:38;11.07;;;2.63;;
24521;SDS011;12680;57.804;12.190;2023-09-30T14:47:05;13.00;;;2.47;;
24521;SDS011;12680;57.804;12.190;2023-09-30T14:49:32;17.10;;;3.17;;
24521;SDS011;12680;57.804;12.190;2023-09-30T14:51:59;18.25;;;2.90;;
24521;SDS011;12680;57.804;12.190;2023-09-30T14:54:26;16.25;;;3.25;;
24521;SDS011;12680;57.804;12.190;2023-09-30T14:56:53;14.27;;;2.72;;
24521;SDS011;12680;57.804;12.190;2023-09-30T14:59:20;14.18;;;2.63;;
24521;SDS011;12680;57.804;12.190;2023-09-30T15:01:47;19.02;;;2.75;;
24521;SDS011;12680;57.804;12.190;2023-09-30T15:04:15;10.75;;;2.13;;
24521;SDS011;12680;57.804;12.190;2023-09-30T15:06:42;17.65;;;2.65;;
24521;SDS011;12680;57.804;12.190;2023-09-30T15:09:09;13.05;;;2.08;;
24521;SDS011;12680;57.804;12.190;2023-09-30T15:11:38;17.33;;;2.95;;
24521;SDS011;12680;57.804;12.190;2023-09-30T15:14:05;12.30;;;2.63;;
24521;SDS011;12680;57.804;12.190;2023-09-30T15:16:33;15.95;;;2.38;;
24521;SDS011;12680;57.804;12.190;2023-09-30T15:19:01;16.30;;;2.83;;
24521;SDS011;12680;57.804;12.190;2023-09-30T15:21:28;10.85;;;2.55;;
24521;SDS011;12680;57.804;12.190;2023-09-30T15:23:55;14.57;;;2.40;;
24521;SDS011;12680;57.804;12.190;2023-09-30T15:26:22;17.52;;;2.53;;
24521;SDS011;12680;57.804;12.190;2023-09-30T15:28:49;10.05;;;2.33;;
24521;SDS011;12680;57.804;12.190;2023-09-30T15:31:16;16.10;;;2.97;;
24521;SDS011;12680;57.804;12.190;2023-09-30T15:33:43;12.70;;;2.42;;
24521;SDS011;12680;57.804;12.190;2023-09-30T15:36:13;14.30;;;2.50;;
24521;SDS011;12680;57.804;12.190;2023-09-30T15:38:44;12.50;;;2.95;;
24521;SDS011;12680;57.804;12.190;2023-09-30T15:41:12;16.48;;;3.35;;
24521;SDS011;12680;57.804;12.190;2023-09-30T15:43:40;13.80;;;2.15;;
24521;SDS011;12680;57.804;12.190;2023-09-30T15:46:10;13.40;;;2.55;;